createdAt,value
2017-05-02T00:00:40.688Z,16
2017-05-02T00:10:40.704Z,18
2017-05-02T00:20:40.621Z,17
2017-05-02T00:30:40.656Z,16
2017-05-02T00:40:40.744Z,17
2017-05-02T00:50:40.707Z,19
2017-05-02T01:00:40.790Z,16
2017-05-02T01:10:40.662Z,16
2017-05-02T01:20:40.658Z,16
2017-05-02T01:30:40.724Z,15
2017-05-02T01:40:40.829Z,16
2017-05-02T01:50:40.791Z,15
2017-05-02T02:00:40.749Z,15
2017-05-02T02:10:41.048Z,16
2017-05-02T02:20:40.729Z,18
2017-05-02T02:30:40.781Z,18
2017-05-02T02:40:40.789Z,21
2017-05-02T02:50:40.766Z,20
2017-05-02T03:00:40.776Z,20
2017-05-02T03:10:40.799Z,22
2017-05-02T03:20:40.835Z,24
2017-05-02T03:30:40.896Z,23
2017-05-02T03:40:40.800Z,24
2017-05-02T03:50:40.808Z,25
2017-05-02T04:00:40.860Z,26
2017-05-02T04:10:40.837Z,27
2017-05-02T04:20:40.843Z,30
2017-05-02T04:30:40.844Z,30
2017-05-02T04:40:40.886Z,29
2017-05-02T04:50:40.843Z,29
2017-05-02T05:00:40.892Z,29
2017-05-02T05:10:40.897Z,30
2017-05-02T05:20:40.941Z,30
2017-05-02T05:30:40.960Z,30
2017-05-02T05:40:40.901Z,30
2017-05-02T05:50:40.934Z,28
2017-05-02T06:00:41.509Z,28
2017-05-02T06:10:40.998Z,30
2017-05-02T06:20:40.953Z,29
2017-05-02T06:30:40.950Z,30
2017-05-02T06:40:40.975Z,30
2017-05-02T06:50:40.962Z,26
2017-05-02T07:00:41.068Z,26
2017-05-02T07:10:41.011Z,26
2017-05-02T07:20:41.062Z,24
2017-05-02T07:30:41.017Z,21
2017-05-02T07:40:40.993Z,22
2017-05-02T07:50:41.017Z,19
2017-05-02T08:00:41.055Z,18
2017-05-02T08:10:41.485Z,17
2017-05-02T08:20:53.153Z,17
2017-05-02T08:30:41.117Z,16
2017-05-02T08:40:41.098Z,15
2017-05-02T08:50:41.190Z,15
2017-05-02T09:00:41.111Z,16
2017-05-02T09:10:41.654Z,14
2017-05-02T09:20:41.426Z,14
2017-05-02T09:30:41.212Z,12
2017-05-02T09:40:41.232Z,12
2017-05-02T09:50:41.180Z,12
2017-05-02T10:00:41.938Z,14
2017-05-02T10:10:41.272Z,14
2017-05-02T10:20:42.097Z,13
2017-05-02T10:30:41.345Z,11
2017-05-02T10:40:41.299Z,14
2017-05-02T10:50:41.558Z,15
2017-05-02T11:00:42.742Z,13
2017-05-02T11:10:41.785Z,12
2017-05-02T11:20:41.874Z,12
2017-05-02T11:30:42.274Z,13
2017-05-02T11:40:41.722Z,13
2017-05-02T11:50:41.287Z,14
2017-05-02T12:00:41.268Z,13
2017-05-02T12:10:41.294Z,13
2017-05-02T12:20:42.123Z,14
2017-05-02T12:30:41.311Z,12
2017-05-02T12:40:41.309Z,14
2017-05-02T12:50:41.366Z,14
2017-05-02T13:00:41.502Z,14
2017-05-02T13:10:41.423Z,13
2017-05-02T13:20:41.330Z,13
2017-05-02T13:30:41.383Z,14
2017-05-02T13:40:41.375Z,13
2017-05-02T13:50:41.403Z,14
2017-05-02T14:00:41.464Z,15
2017-05-02T14:10:41.470Z,11
2017-05-02T14:20:41.473Z,11
2017-05-02T14:30:41.528Z,12
2017-05-02T14:40:41.441Z,12
2017-05-02T14:50:41.521Z,12
2017-05-02T15:00:41.522Z,12
2017-05-02T15:10:41.515Z,14
2017-05-02T15:20:41.521Z,12
2017-05-02T15:30:41.495Z,13
2017-05-02T15:40:41.521Z,14
2017-05-02T15:50:41.620Z,14
2017-05-02T16:00:41.960Z,12
2017-05-02T16:10:41.531Z,13
2017-05-02T16:20:41.573Z,13
2017-05-02T16:30:41.540Z,13
2017-05-02T16:40:41.627Z,12
2017-05-02T16:50:41.522Z,10
2017-05-02T17:00:41.755Z,10
2017-05-02T17:10:41.621Z,11
2017-05-02T17:20:41.566Z,10
2017-05-02T17:30:41.596Z,9
2017-05-02T17:40:41.719Z,11
2017-05-02T17:50:41.634Z,9
2017-05-02T18:00:41.668Z,9
2017-05-02T18:10:41.662Z,10
2017-05-02T18:20:41.653Z,9
2017-05-02T18:30:41.670Z,8
2017-05-02T18:40:41.751Z,8
2017-05-02T18:50:41.738Z,7
2017-05-02T19:00:41.757Z,9
2017-05-02T19:10:41.778Z,10
2017-05-02T19:20:41.912Z,8
2017-05-02T19:30:41.716Z,8
2017-05-02T19:40:41.823Z,8
2017-05-02T19:50:41.996Z,9
2017-05-02T20:00:41.856Z,9
2017-05-02T20:10:41.997Z,10
2017-05-02T20:20:41.899Z,11
2017-05-02T20:30:41.921Z,11
2017-05-02T20:40:41.934Z,12
2017-05-02T20:50:42.098Z,11
2017-05-02T21:00:41.938Z,12
2017-05-02T21:10:46.947Z,12
2017-05-02T21:20:41.850Z,14
2017-05-02T21:30:41.838Z,13
2017-05-02T21:40:41.819Z,14
2017-05-02T21:50:41.931Z,13
2017-05-02T22:00:41.970Z,13
2017-05-02T22:10:46.101Z,13
2017-05-02T22:20:41.961Z,13
2017-05-02T22:30:41.868Z,14
2017-05-02T22:40:41.875Z,16
2017-05-02T22:50:41.998Z,16
2017-05-02T23:00:41.899Z,17
2017-05-02T23:10:41.904Z,17
2017-05-02T23:20:41.923Z,18
2017-05-02T23:30:41.985Z,19
2017-05-02T23:40:51.702Z,16
2017-05-02T23:50:41.900Z,18
